sensor_id;sensor_type;location;lat;lon;timestamp;pressure;altitude;pressure_sealevel;temperature;humidity
59337;BME280;45115;52.002;4.686;2023-05-21T00:00:12;102046.06;;;14.30;73.03
59337;BME280;45115;52.002;4.686;2023-05-21T00:02:39;102046.78;;;14.32;72.59
59337;BME280;45115;52.002;4.686;2023-05-21T00:05:07;102055.50;;;14.37;72.63
59337;BME280;45115;52.002;4.686;2023-05-21T00:07:36;102042.00;;;14.34;72.57
59337;BME280;45115;52.002;4.686;2023-05-21T00:10:04;102046.94;;;14.30;73.28
59337;BME280;45115;52.002;4.686;2023-05-21T00:12:31;102043.50;;;14.38;73.06
59337;BME280;45115;52.002;4.686;2023-05-21T00:14:58;102034.47;;;14.36;73.03
59337;BME280;45115;52.002;4.686;2023-05-21T00:17:25;102044.34;;;14.38;73.26
59337;BME280;45115;52.002;4.686;2023-05-21T00:19:53;102023.84;;;14.31;73.76
59337;BME280;45115;52.002;4.686;2023-05-21T00:22:19;102040.50;;;14.20;74.41
59337;BME280;45115;52.002;4.686;2023-05-21T00:24:47;102035.66;;;14.13;75.21
59337;BME280;45115;52.002;4.686;2023-05-21T00:27:14;102031.06;;;14.23;74.97
59337;BME280;45115;52.002;4.686;2023-05-21T00:29:40;102022.63;;;14.15;75.27
59337;BME280;45115;52.002;4.686;2023-05-21T00:32:08;102027.94;;;14.27;75.30
59337;BME280;45115;52.002;4.686;2023-05-21T00:34:35;102027.50;;;14.32;75.26
59337;BME280;45115;52.002;4.686;2023-05-21T00:37:01;102015.53;;;14.22;76.15
59337;BME280;45115;52.002;4.686;2023-05-21T00:39:28;102023.03;;;14.40;75.96
59337;BME280;45115;52.002;4.686;2023-05-21T00:41:56;102027.50;;;14.41;76.06
59337;BME280;45115;52.002;4.686;2023-05-21T00:44:22;102029.56;;;14.39;77.04
59337;BME280;45115;52.002;4.686;2023-05-21T00:46:49;102027.84;;;14.48;77.18
59337;BME280;45115;52.002;4.686;2023-05-21T00:49:18;102035.13;;;14.59;77.25
59337;BME280;45115;52.002;4.686;2023-05-21T00:51:47;102032.22;;;14.60;77.78
59337;BME280;45115;52.002;4.686;2023-05-21T00:54:13;102018.56;;;14.59;77.75
59337;BME280;45115;52.002;4.686;2023-05-21T00:56:40;102027.41;;;14.52;78.33
59337;BME280;45115;52.002;4.686;2023-05-21T00:59:08;102021.88;;;14.52;78.58
59337;BME280;45115;52.002;4.686;2023-05-21T01:01:35;102024.06;;;14.49;79.18
59337;BME280;45115;52.002;4.686;2023-05-21T01:04:02;102011.00;;;14.51;78.91
59337;BME280;45115;52.002;4.686;2023-05-21T01:06:29;102016.84;;;14.67;78.57
59337;BME280;45115;52.002;4.686;2023-05-21T01:08:59;102011.16;;;14.59;78.93
59337;BME280;45115;52.002;4.686;2023-05-21T01:11:34;102013.06;;;14.59;79.22
59337;BME280;45115;52.002;4.686;2023-05-21T01:14:03;102005.38;;;14.72;78.89
59337;BME280;45115;52.002;4.686;2023-05-21T01:16:36;102007.56;;;14.78;78.87
59337;BME280;45115;52.002;4.686;2023-05-21T01:19:04;102006.53;;;14.69;79.44
59337;BME280;45115;52.002;4.686;2023-05-21T01:21:32;101999.41;;;14.67;79.40
59337;BME280;45115;52.002;4.686;2023-05-21T01:24:03;101998.13;;;14.71;78.98
59337;BME280;45115;52.002;4.686;2023-05-21T01:26:32;102000.44;;;14.66;79.18
59337;BME280;45115;52.002;4.686;2023-05-21T01:29:04;102002.75;;;14.70;78.86
59337;BME280;45115;52.002;4.686;2023-05-21T01:31:35;101996.53;;;14.78;78.54
59337;BME280;45115;52.002;4.686;2023-05-21T01:34:10;101993.94;;;14.76;79.00
59337;BME280;45115;52.002;4.686;2023-05-21T01:36:40;101992.47;;;14.72;79.29
59337;BME280;45115;52.002;4.686;2023-05-21T01:39:15;101996.09;;;14.82;78.33
59337;BME280;45115;52.002;4.686;2023-05-21T01:41:45;101994.47;;;14.70;78.47
59337;BME280;45115;52.002;4.686;2023-05-21T01:44:14;101999.88;;;14.81;78.81
59337;BME280;45115;52.002;4.686;2023-05-21T01:46:43;102002.94;;;14.78;79.02
59337;BME280;45115;52.002;4.686;2023-05-21T01:49:10;102005.25;;;14.83;79.29
59337;BME280;45115;52.002;4.686;2023-05-21T01:51:38;102006.84;;;14.76;79.65
59337;BME280;45115;52.002;4.686;2023-05-21T01:54:05;102003.78;;;14.79;79.66
59337;BME280;45115;52.002;4.686;2023-05-21T01:56:33;102003.22;;;14.85;79.51
59337;BME280;45115;52.002;4.686;2023-05-21T01:59:01;101991.16;;;14.67;80.13
59337;BME280;45115;52.002;4.686;2023-05-21T02:01:28;102003.50;;;14.72;80.47
59337;BME280;45115;52.002;4.686;2023-05-21T02:03:55;102000.19;;;14.78;80.74
59337;BME280;45115;52.002;4.686;2023-05-21T02:06:22;101995.50;;;14.69;80.63
59337;BME280;45115;52.002;4.686;2023-05-21T02:08:48;102004.66;;;14.79;80.18
59337;BME280;45115;52.002;4.686;2023-05-21T02:11:15;101992.75;;;14.79;80.10
59337;BME280;45115;52.002;4.686;2023-05-21T02:13:43;101991.72;;;14.70;79.63
59337;BME280;45115;52.002;4.686;2023-05-21T02:16:10;101992.47;;;14.72;80.02
59337;BME280;45115;52.002;4.686;2023-05-21T02:18:38;101988.09;;;14.70;78.81
59337;BME280;45115;52.002;4.686;2023-05-21T02:21:06;101989.25;;;14.77;78.62
59337;BME280;45115;52.002;4.686;2023-05-21T02:23:33;101991.31;;;14.75;78.64
59337;BME280;45115;52.002;4.686;2023-05-21T02:26:00;101989.13;;;14.69;78.70
59337;BME280;45115;52.002;4.686;2023-05-21T02:28:27;101991.44;;;14.83;78.37
59337;BME280;45115;52.002;4.686;2023-05-21T02:30:56;101986.50;;;14.77;78.72
59337;BME280;45115;52.002;4.686;2023-05-21T02:33:23;101990.00;;;14.88;78.21
59337;BME280;45115;52.002;4.686;2023-05-21T02:35:50;101993.63;;;14.79;78.75
59337;BME280;45115;52.002;4.686;2023-05-21T02:38:17;101997.69;;;14.75;78.94
59337;BME280;45115;52.002;4.686;2023-05-21T02:40:47;101992.16;;;14.75;78.79
59337;BME280;45115;52.002;4.686;2023-05-21T02:43:15;101995.94;;;14.74;79.10
59337;BME280;45115;52.002;4.686;2023-05-21T02:45:42;101983.03;;;14.84;78.46
59337;BME280;45115;52.002;4.686;2023-05-21T02:48:10;101987.38;;;14.77;78.77
59337;BME280;45115;52.002;4.686;2023-05-21T02:50:39;101998.41;;;14.68;79.60
59337;BME280;45115;52.002;4.686;2023-05-21T02:53:06;101996.69;;;14.76;79.47
59337;BME280;45115;52.002;4.686;2023-05-21T02:55:34;101997.97;;;14.72;79.94
59337;BME280;45115;52.002;4.686;2023-05-21T02:58:00;101991.88;;;14.69;80.23
59337;BME280;45115;52.002;4.686;2023-05-21T03:00:27;101987.09;;;14.71;80.11
59337;BME280;45115;52.002;4.686;2023-05-21T03:02:54;101987.38;;;14.68;80.18
59337;BME280;45115;52.002;4.686;2023-05-21T03:05:22;101987.97;;;14.71;79.99
59337;BME280;45115;52.002;4.686;2023-05-21T03:07:49;101982.59;;;14.60;80.63
59337;BME280;45115;52.002;4.686;2023-05-21T03:10:15;101992.47;;;14.72;79.71
59337;BME280;45115;52.002;4.686;2023-05-21T03:12:42;101988.69;;;14.64;79.94
59337;BME280;45115;52.002;4.686;2023-05-21T03:15:10;101984.91;;;14.65;79.55
59337;BME280;45115;52.002;4.686;2023-05-21T03:17:39;101983.44;;;14.70;78.99
59337;BME280;45115;52.002;4.686;2023-05-21T03:20:07;101983.75;;;14.67;79.18
59337;BME280;45115;52.002;4.686;2023-05-21T03:22:41;101982.13;;;14.65;79.01
59337;BME280;45115;52.002;4.686;2023-05-21T03:25:09;101975.31;;;14.69;79.06
59337;BME280;45115;52.002;4.686;2023-05-21T03:27:37;101980.69;;;14.70;78.87
59337;BME280;45115;52.002;4.686;2023-05-21T03:30:07;101977.50;;;14.65;78.73
59337;BME280;45115;52.002;4.686;2023-05-21T03:32:45;101979.38;;;14.65;78.76
59337;BME280;45115;52.002;4.686;2023-05-21T03:35:12;101979.81;;;14.60;78.97
59337;BME280;45115;52.002;4.686;2023-05-21T03:37:38;101979.09;;;14.58;78.82
59337;BME280;45115;52.002;4.686;2023-05-21T03:40:07;101979.22;;;14.66;78.32
59337;BME280;45115;52.002;4.686;2023-05-21T03:42:34;101969.38;;;14.73;78.19
59337;BME280;45115;52.002;4.686;2023-05-21T03:45:02;101976.06;;;14.71;78.52
59337;BME280;45115;52.002;4.686;2023-05-21T03:47:48;101977.50;;;14.65;78.38
59337;BME280;45115;52.002;4.686;2023-05-21T03:50:15;101971.97;;;14.55;78.79
59337;BME280;45115;52.002;4.686;2023-05-21T03:52:42;101975.78;;;14.64;78.40
59337;BME280;45115;52.002;4.686;2023-05-21T03:55:10;101982.88;;;14.67;78.42
59337;BME280;45115;52.002;4.686;2023-05-21T03:57:38;101976.78;;;14.63;78.39
59337;BME280;45115;52.002;4.686;2023-05-21T04:00:06;101979.69;;;14.71;77.81
59337;BME280;45115;52.002;4.686;2023-05-21T04:02:41;101971.53;;;14.70;77.89
59337;BME280;45115;52.002;4.686;2023-05-21T04:05:08;101975.91;;;14.72;77.63
59337;BME280;45115;52.002;4.686;2023-05-21T04:07:35;101973.44;;;14.69;77.76
59337;BME280;45115;52.002;4.686;2023-05-21T04:10:04;101973.00;;;14.64;78.08
59337;BME280;45115;52.002;4.686;2023-05-21T04:12:32;101972.13;;;14.73;77.30
59337;BME280;45115;52.002;4.686;2023-05-21T04:14:59;101969.38;;;14.73;77.50
59337;BME280;45115;52.002;4.686;2023-05-21T04:17:27;101965.91;;;14.71;77.35
59337;BME280;45115;52.002;4.686;2023-05-21T04:19:54;101968.78;;;14.70;77.60
59337;BME280;45115;52.002;4.686;2023-05-21T04:22:21;101971.84;;;14.67;77.76
59337;BME280;45115;52.002;4.686;2023-05-21T04:24:50;101975.19;;;14.70;77.70
59337;BME280;45115;52.002;4.686;2023-05-21T04:27:22;101974.88;;;14.73;77.28
59337;BME280;45115;52.002;4.686;2023-05-21T04:29:51;101970.97;;;14.76;77.45
59337;BME280;45115;52.002;4.686;2023-05-21T04:32:20;101978.97;;;14.79;77.65
59337;BME280;45115;52.002;4.686;2023-05-21T04:34:46;101978.53;;;14.83;77.20
59337;BME280;45115;52.002;4.686;2023-05-21T04:37:13;101970.25;;;14.83;77.44
59337;BME280;45115;52.002;4.686;2023-05-21T04:39:42;101980.69;;;14.89;77.53
59337;BME280;45115;52.002;4.686;2023-05-21T04:42:08;101989.72;;;14.91;77.75
59337;BME280;45115;52.002;4.686;2023-05-21T04:44:36;101979.84;;;14.89;78.29
59337;BME280;45115;52.002;4.686;2023-05-21T04:47:04;101978.81;;;14.90;78.80
59337;BME280;45115;52.002;4.686;2023-05-21T04:49:32;101972.13;;;15.02;78.52
59337;BME280;45115;52.002;4.686;2023-05-21T04:51:59;101968.34;;;15.03;78.89
59337;BME280;45115;52.002;4.686;2023-05-21T04:54:26;101970.97;;;15.04;79.43
59337;BME280;45115;52.002;4.686;2023-05-21T04:56:53;101974.00;;;15.01;79.20
59337;BME280;45115;52.002;4.686;2023-05-21T04:59:20;101959.66;;;14.88;79.90
59337;BME280;45115;52.002;4.686;2023-05-21T05:01:47;101969.22;;;15.03;79.46
59337;BME280;45115;52.002;4.686;2023-05-21T05:04:15;101966.59;;;14.92;80.18
59337;BME280;45115;52.002;4.686;2023-05-21T05:06:42;101969.69;;;14.99;80.57
59337;BME280;45115;52.002;4.686;2023-05-21T05:09:09;101973.88;;;15.03;80.27
59337;BME280;45115;52.002;4.686;2023-05-21T05:11:35;101974.19;;;15.09;80.27
59337;BME280;45115;52.002;4.686;2023-05-21T05:14:02;101971.25;;;15.11;80.50
59337;BME280;45115;52.002;4.686;2023-05-21T05:16:29;101972.00;;;15.13;80.65
59337;BME280;45115;52.002;4.686;2023-05-21T05:18:56;101971.56;;;15.08;80.92
59337;BME280;45115;52.002;4.686;2023-05-21T05:21:24;101969.38;;;15.02;81.14
59337;BME280;45115;52.002;4.686;2023-05-21T05:23:50;101972.25;;;15.10;81.14
59337;BME280;45115;52.002;4.686;2023-05-21T05:26:20;101969.81;;;15.16;80.70
59337;BME280;45115;52.002;4.686;2023-05-21T05:28:48;101959.91;;;15.23;80.93
59337;BME280;45115;52.002;4.686;2023-05-21T05:31:15;101958.16;;;15.32;80.58
59337;BME280;45115;52.002;4.686;2023-05-21T05:33:42;101962.66;;;15.42;80.19
59337;BME280;45115;52.002;4.686;2023-05-21T05:36:10;101964.25;;;15.45;80.21
59337;BME280;45115;52.002;4.686;2023-05-21T05:38:38;101952.31;;;15.54;79.23
59337;BME280;45115;52.002;4.686;2023-05-21T05:41:05;101955.94;;;15.54;79.73
59337;BME280;45115;52.002;4.686;2023-05-21T05:43:31;101954.31;;;15.61;79.58
59337;BME280;45115;52.002;4.686;2023-05-21T05:45:59;101948.22;;;15.58;79.66
59337;BME280;45115;52.002;4.686;2023-05-21T05:48:26;101955.53;;;15.49;80.28
59337;BME280;45115;52.002;4.686;2023-05-21T05:50:53;101959.13;;;15.59;79.36
59337;BME280;45115;52.002;4.686;2023-05-21T05:53:23;101943.69;;;15.67;79.08
59337;BME280;45115;52.002;4.686;2023-05-21T05:55:51;101952.13;;;15.65;78.89
59337;BME280;45115;52.002;4.686;2023-05-21T05:58:18;101946.28;;;15.78;79.03
59337;BME280;45115;52.002;4.686;2023-05-21T06:01:14;101953.69;;;16.04;78.34
59337;BME280;45115;52.002;4.686;2023-05-21T06:03:41;101957.75;;;16.10;77.32
59337;BME280;45115;52.002;4.686;2023-05-21T06:06:10;101956.03;;;15.99;78.11
59337;BME280;45115;52.002;4.686;2023-05-21T06:08:37;101956.31;;;16.06;78.01
59337;BME280;45115;52.002;4.686;2023-05-21T06:11:06;101952.63;;;16.15;77.62
59337;BME280;45115;52.002;4.686;2023-05-21T06:13:33;101956.25;;;16.15;77.29
59337;BME280;45115;52.002;4.686;2023-05-21T06:16:00;101954.00;;;16.28;76.74
59337;BME280;45115;52.002;4.686;2023-05-21T06:18:29;101953.84;;;16.30;77.40
59337;BME280;45115;52.002;4.686;2023-05-21T06:20:56;101953.22;;;16.36;77.05
59337;BME280;45115;52.002;4.686;2023-05-21T06:23:23;101950.66;;;16.52;76.66
59337;BME280;45115;52.002;4.686;2023-05-21T06:25:50;101953.03;;;16.47;77.01
59337;BME280;45115;52.002;4.686;2023-05-21T06:28:19;101951.47;;;16.62;76.43
59337;BME280;45115;52.002;4.686;2023-05-21T06:30:47;101961.03;;;16.67;76.85
59337;BME280;45115;52.002;4.686;2023-05-21T06:33:14;101964.69;;;16.86;75.89
59337;BME280;45115;52.002;4.686;2023-05-21T06:35:41;101951.25;;;16.73;76.62
59337;BME280;45115;52.002;4.686;2023-05-21T06:38:09;101962.88;;;16.77;76.38
59337;BME280;45115;52.002;4.686;2023-05-21T06:40:36;101967.53;;;16.76;76.82
59337;BME280;45115;52.002;4.686;2023-05-21T06:43:03;101967.22;;;16.79;76.62
59337;BME280;45115;52.002;4.686;2023-05-21T06:45:50;101970.22;;;16.68;76.77
59337;BME280;45115;52.002;4.686;2023-05-21T06:48:26;101967.44;;;16.68;76.52
59337;BME280;45115;52.002;4.686;2023-05-21T06:50:53;101965.00;;;16.83;76.69
59337;BME280;45115;52.002;4.686;2023-05-21T06:53:19;101962.69;;;16.78;76.19
59337;BME280;45115;52.002;4.686;2023-05-21T06:55:47;101958.28;;;16.85;75.87
59337;BME280;45115;52.002;4.686;2023-05-21T06:58:21;101962.78;;;16.86;76.33
59337;BME280;45115;52.002;4.686;2023-05-21T07:00:47;101961.03;;;17.03;75.24
59337;BME280;45115;52.002;4.686;2023-05-21T07:03:15;101955.00;;;17.25;75.38
59337;BME280;45115;52.002;4.686;2023-05-21T07:05:42;101961.13;;;17.54;73.17
59337;BME280;45115;52.002;4.686;2023-05-21T07:08:09;101968.13;;;17.40;73.06
59337;BME280;45115;52.002;4.686;2023-05-21T07:10:36;101967.06;;;17.41;72.69
59337;BME280;45115;52.002;4.686;2023-05-21T07:13:03;101960.75;;;17.31;72.84
59337;BME280;45115;52.002;4.686;2023-05-21T07:15:30;101972.59;;;17.59;72.37
59337;BME280;45115;52.002;4.686;2023-05-21T07:17:56;101964.44;;;17.57;72.42
59337;BME280;45115;52.002;4.686;2023-05-21T07:20:24;101961.41;;;18.02;71.41
59337;BME280;45115;52.002;4.686;2023-05-21T07:22:54;101968.06;;;18.17;70.06
59337;BME280;45115;52.002;4.686;2023-05-21T07:25:21;101963.53;;;18.08;70.12
59337;BME280;45115;52.002;4.686;2023-05-21T07:27:48;101968.03;;;17.75;71.12
59337;BME280;45115;52.002;4.686;2023-05-21T07:30:14;101969.66;;;17.86;70.84
59337;BME280;45115;52.002;4.686;2023-05-21T07:32:41;101959.00;;;18.07;70.38
59337;BME280;45115;52.002;4.686;2023-05-21T07:35:08;101966.50;;;18.15;69.69
59337;BME280;45115;52.002;4.686;2023-05-21T07:37:36;101970.03;;;18.33;69.31
59337;BME280;45115;52.002;4.686;2023-05-21T07:40:04;101962.22;;;18.28;69.59
59337;BME280;45115;52.002;4.686;2023-05-21T07:42:33;101965.16;;;18.27;69.51
59337;BME280;45115;52.002;4.686;2023-05-21T07:45:00;101964.31;;;18.26;69.00
59337;BME280;45115;52.002;4.686;2023-05-21T07:47:30;101961.91;;;17.98;69.74
59337;BME280;45115;52.002;4.686;2023-05-21T07:49:57;101957.81;;;18.18;69.88
59337;BME280;45115;52.002;4.686;2023-05-21T07:52:24;101962.91;;;18.30;68.66
59337;BME280;45115;52.002;4.686;2023-05-21T07:54:53;101946.03;;;18.57;68.78
59337;BME280;45115;52.002;4.686;2023-05-21T07:57:21;101949.22;;;19.19;66.42
59337;BME280;45115;52.002;4.686;2023-05-21T07:59:57;101950.59;;;18.90;66.82
59337;BME280;45115;52.002;4.686;2023-05-21T08:02:24;101951.47;;;18.75;68.09
59337;BME280;45115;52.002;4.686;2023-05-21T08:04:51;101947.94;;;18.57;68.20
59337;BME280;45115;52.002;4.686;2023-05-21T08:07:19;101934.91;;;18.49;67.37
59337;BME280;45115;52.002;4.686;2023-05-21T08:09:46;101953.19;;;18.68;66.61
59337;BME280;45115;52.002;4.686;2023-05-21T08:12:14;101941.59;;;18.88;64.63
59337;BME280;45115;52.002;4.686;2023-05-21T08:14:43;101938.63;;;18.90;65.05
59337;BME280;45115;52.002;4.686;2023-05-21T08:17:11;101940.53;;;19.22;65.08
59337;BME280;45115;52.002;4.686;2023-05-21T08:19:38;101940.56;;;19.38;64.18
59337;BME280;45115;52.002;4.686;2023-05-21T08:22:05;101938.41;;;19.72;64.26
59337;BME280;45115;52.002;4.686;2023-05-21T08:24:33;101948.22;;;19.36;63.63
59337;BME280;45115;52.002;4.686;2023-05-21T08:27:00;101948.72;;;19.55;62.97
59337;BME280;45115;52.002;4.686;2023-05-21T08:29:30;101953.06;;;19.50;61.71
59337;BME280;45115;52.002;4.686;2023-05-21T08:31:58;101948.00;;;19.69;62.64
59337;BME280;45115;52.002;4.686;2023-05-21T08:34:25;101956.38;;;20.08;62.00
59337;BME280;45115;52.002;4.686;2023-05-21T08:37:02;101946.63;;;19.33;62.41
59337;BME280;45115;52.002;4.686;2023-05-21T08:39:52;101936.75;;;19.31;62.64
59337;BME280;45115;52.002;4.686;2023-05-21T08:42:26;101940.94;;;19.35;61.83
59337;BME280;45115;52.002;4.686;2023-05-21T08:44:58;101934.94;;;19.78;60.24
59337;BME280;45115;52.002;4.686;2023-05-21T08:47:29;101934.00;;;19.93;59.78
59337;BME280;45115;52.002;4.686;2023-05-21T08:49:59;101934.63;;;20.20;59.52
59337;BME280;45115;52.002;4.686;2023-05-21T08:52:26;101947.47;;;20.21;59.68
59337;BME280;45115;52.002;4.686;2023-05-21T08:54:53;101940.38;;;19.55;60.96
59337;BME280;45115;52.002;4.686;2023-05-21T08:57:21;101942.47;;;19.53;61.08
59337;BME280;45115;52.002;4.686;2023-05-21T08:59:51;101942.13;;;19.48;60.54
59337;BME280;45115;52.002;4.686;2023-05-21T09:02:25;101940.53;;;19.22;61.26
59337;BME280;45115;52.002;4.686;2023-05-21T09:04:53;101945.59;;;19.10;61.76
59337;BME280;45115;52.002;4.686;2023-05-21T09:07:24;101919.22;;;19.38;61.68
59337;BME280;45115;52.002;4.686;2023-05-21T09:10:22;101920.34;;;19.76;60.20
59337;BME280;45115;52.002;4.686;2023-05-21T09:12:52;101925.19;;;19.82;59.99
59337;BME280;45115;52.002;4.686;2023-05-21T09:15:19;101923.00;;;19.29;60.88
59337;BME280;45115;52.002;4.686;2023-05-21T09:17:48;101924.41;;;19.01;62.26
59337;BME280;45115;52.002;4.686;2023-05-21T09:20:31;101923.56;;;19.33;62.20
59337;BME280;45115;52.002;4.686;2023-05-21T09:23:02;101913.06;;;19.75;60.09
59337;BME280;45115;52.002;4.686;2023-05-21T09:25:29;101925.63;;;20.01;59.05
59337;BME280;45115;52.002;4.686;2023-05-21T09:28:00;101923.00;;;20.16;59.25
59337;BME280;45115;52.002;4.686;2023-05-21T09:30:26;101924.56;;;20.72;57.02
59337;BME280;45115;52.002;4.686;2023-05-21T09:32:55;101922.63;;;21.40;56.42
59337;BME280;45115;52.002;4.686;2023-05-21T09:35:23;101914.22;;;21.26;54.79
59337;BME280;45115;52.002;4.686;2023-05-21T09:37:52;101918.78;;;20.81;56.12
59337;BME280;45115;52.002;4.686;2023-05-21T09:40:21;101919.78;;;20.58;55.90
59337;BME280;45115;52.002;4.686;2023-05-21T09:42:50;101916.53;;;21.22;55.26
59337;BME280;45115;52.002;4.686;2023-05-21T09:45:18;101904.06;;;21.33;54.63
59337;BME280;45115;52.002;4.686;2023-05-21T09:47:46;101903.34;;;21.68;53.43
59337;BME280;45115;52.002;4.686;2023-05-21T09:50:17;101909.94;;;21.89;54.45
59337;BME280;45115;52.002;4.686;2023-05-21T09:52:44;101904.03;;;21.55;52.60
59337;BME280;45115;52.002;4.686;2023-05-21T09:55:11;101898.13;;;20.98;55.14
59337;BME280;45115;52.002;4.686;2023-05-21T09:57:41;101900.13;;;20.82;55.20
59337;BME280;45115;52.002;4.686;2023-05-21T10:00:15;101908.59;;;20.43;56.11
59337;BME280;45115;52.002;4.686;2023-05-21T10:02:43;101911.69;;;20.48;56.92
59337;BME280;45115;52.002;4.686;2023-05-21T10:05:11;101900.88;;;20.76;56.02
59337;BME280;45115;52.002;4.686;2023-05-21T10:07:41;101902.47;;;20.48;57.40
59337;BME280;45115;52.002;4.686;2023-05-21T10:10:12;101896.34;;;20.75;56.24
59337;BME280;45115;52.002;4.686;2023-05-21T10:12:42;101891.31;;;21.01;56.13
59337;BME280;45115;52.002;4.686;2023-05-21T10:15:13;101890.06;;;21.03;57.15
59337;BME280;45115;52.002;4.686;2023-05-21T10:17:41;101894.41;;;21.21;54.80
59337;BME280;45115;52.002;4.686;2023-05-21T10:20:10;101886.34;;;21.26;54.94
59337;BME280;45115;52.002;4.686;2023-05-21T10:22:37;101882.56;;;21.41;54.05
59337;BME280;45115;52.002;4.686;2023-05-21T10:25:06;101897.72;;;20.79;55.72
59337;BME280;45115;52.002;4.686;2023-05-21T10:27:34;101893.50;;;20.83;56.57
59337;BME280;45115;52.002;4.686;2023-05-21T10:30:03;101886.34;;;20.88;56.13
59337;BME280;45115;52.002;4.686;2023-05-21T10:32:31;101880.38;;;20.91;55.98
59337;BME280;45115;52.002;4.686;2023-05-21T10:34:58;101891.88;;;21.34;55.71
59337;BME280;45115;52.002;4.686;2023-05-21T10:37:26;101883.56;;;21.26;54.51
59337;BME280;45115;52.002;4.686;2023-05-21T10:39:53;101886.78;;;21.00;55.51
59337;BME280;45115;52.002;4.686;2023-05-21T10:42:42;101881.28;;;20.69;56.73
59337;BME280;45115;52.002;4.686;2023-05-21T10:45:18;101876.69;;;20.76;56.78
59337;BME280;45115;52.002;4.686;2023-05-21T10:48:01;101879.97;;;20.80;56.59
59337;BME280;45115;52.002;4.686;2023-05-21T10:54:34;101873.38;;;21.18;55.42
59337;BME280;45115;52.002;4.686;2023-05-21T10:57:14;101872.59;;;20.87;55.81
59337;BME280;45115;52.002;4.686;2023-05-21T10:59:45;101866.53;;;21.06;55.27
59337;BME280;45115;52.002;4.686;2023-05-21T11:02:13;101877.06;;;21.33;55.78
59337;BME280;45115;52.002;4.686;2023-05-21T11:04:43;101873.50;;;21.25;55.12
59337;BME280;45115;52.002;4.686;2023-05-21T11:07:13;101871.97;;;20.77;56.66
59337;BME280;45115;52.002;4.686;2023-05-21T11:09:40;101865.66;;;21.05;56.51
59337;BME280;45115;52.002;4.686;2023-05-21T11:12:07;101852.38;;;21.59;55.60
59337;BME280;45115;52.002;4.686;2023-05-21T11:14:35;101855.25;;;21.37;54.34
59337;BME280;45115;52.002;4.686;2023-05-21T11:17:09;101856.66;;;21.18;55.23
59337;BME280;45115;52.002;4.686;2023-05-21T11:19:38;101840.50;;;20.99;55.60
59337;BME280;45115;52.002;4.686;2023-05-21T11:22:19;101859.34;;;21.26;55.07
59337;BME280;45115;52.002;4.686;2023-05-21T11:24:47;101852.00;;;21.48;53.41
59337;BME280;45115;52.002;4.686;2023-05-21T11:27:29;101846.84;;;21.08;55.48
59337;BME280;45115;52.002;4.686;2023-05-21T11:29:56;101845.72;;;21.46;55.00
59337;BME280;45115;52.002;4.686;2023-05-21T11:32:24;101842.47;;;21.71;55.05
59337;BME280;45115;52.002;4.686;2023-05-21T11:34:50;101836.78;;;21.65;53.75
59337;BME280;45115;52.002;4.686;2023-05-21T11:37:25;101834.78;;;22.02;52.82
59337;BME280;45115;52.002;4.686;2023-05-21T11:39:53;101835.00;;;21.86;53.87
59337;BME280;45115;52.002;4.686;2023-05-21T11:42:27;101828.63;;;21.92;53.09
59337;BME280;45115;52.002;4.686;2023-05-21T11:44:55;101831.81;;;21.46;54.40
59337;BME280;45115;52.002;4.686;2023-05-21T11:47:23;101827.00;;;21.69;54.36
59337;BME280;45115;52.002;4.686;2023-05-21T11:49:51;101816.78;;;21.76;53.46
59337;BME280;45115;52.002;4.686;2023-05-21T11:52:19;101821.03;;;21.72;53.94
59337;BME280;45115;52.002;4.686;2023-05-21T11:54:47;101820.09;;;21.79;53.54
59337;BME280;45115;52.002;4.686;2023-05-21T11:57:15;101822.16;;;21.63;53.91
59337;BME280;45115;52.002;4.686;2023-05-21T11:59:43;101824.09;;;21.62;53.63
59337;BME280;45115;52.002;4.686;2023-05-21T12:02:13;101825.63;;;21.21;54.86
59337;BME280;45115;52.002;4.686;2023-05-21T12:04:44;101813.81;;;21.63;53.42
59337;BME280;45115;52.002;4.686;2023-05-21T12:07:11;101802.84;;;21.90;53.76
59337;BME280;45115;52.002;4.686;2023-05-21T12:09:39;101808.03;;;21.93;53.17
59337;BME280;45115;52.002;4.686;2023-05-21T12:12:07;101815.34;;;21.94;54.01
59337;BME280;45115;52.002;4.686;2023-05-21T12:14:34;101802.28;;;21.80;53.45
59337;BME280;45115;52.002;4.686;2023-05-21T12:17:02;101804.50;;;21.85;53.61
59337;BME280;45115;52.002;4.686;2023-05-21T12:19:31;101809.84;;;22.37;52.67
59337;BME280;45115;52.002;4.686;2023-05-21T12:22:01;101804.19;;;21.65;53.22
59337;BME280;45115;52.002;4.686;2023-05-21T12:24:28;101809.97;;;21.64;54.26
59337;BME280;45115;52.002;4.686;2023-05-21T12:26:55;101800.66;;;21.57;56.28
59337;BME280;45115;52.002;4.686;2023-05-21T12:29:24;101805.53;;;21.69;54.30
59337;BME280;45115;52.002;4.686;2023-05-21T12:31:51;101812.66;;;21.72;55.38
59337;BME280;45115;52.002;4.686;2023-05-21T12:34:36;101817.16;;;22.02;53.61
59337;BME280;45115;52.002;4.686;2023-05-21T12:37:05;101807.84;;;22.52;53.91
59337;BME280;45115;52.002;4.686;2023-05-21T12:39:36;101798.81;;;22.29;52.39
59337;BME280;45115;52.002;4.686;2023-05-21T12:42:03;101806.16;;;22.36;52.73
59337;BME280;45115;52.002;4.686;2023-05-21T12:44:30;101794.78;;;22.16;53.92
59337;BME280;45115;52.002;4.686;2023-05-21T12:46:56;101796.75;;;22.01;54.32
59337;BME280;45115;52.002;4.686;2023-05-21T12:49:34;101793.59;;;22.61;52.90
59337;BME280;45115;52.002;4.686;2023-05-21T12:52:07;101791.06;;;22.94;51.35
59337;BME280;45115;52.002;4.686;2023-05-21T12:54:36;101791.25;;;22.65;52.08
59337;BME280;45115;52.002;4.686;2023-05-21T12:57:10;101787.00;;;22.69;53.06
59337;BME280;45115;52.002;4.686;2023-05-21T12:59:49;101782.13;;;23.05;53.69
59337;BME280;45115;52.002;4.686;2023-05-21T13:02:19;101779.84;;;23.15;52.75